Time;durP1;ratioP1;P1;durP2;ratioP2;P2;SDS_P1;SDS_P2;PMS_P1;PMS_P2;Temp;Humidity;BMP_temperature;BMP_pressure;BME280_temperature;BME280_humidity;BME280_pressure;Samples;Min_cycle;Max_cycle;Signal;HPM_P1;HPM_P2
2024/01/04 00:01:11;;;;;;;4.60;1.40;;;;;;;11.82;57.51;95934.59;5085560;28;20452;-69
2024/01/04 00:03:36;;;;;;;3.97;1.20;;;;;;;11.77;57.80;95938.78;5078228;28;20269;-69
2024/01/04 00:06:02;;;;;;;5.20;1.20;;;;;;;11.71;57.98;95931.66;5061547;28;20516;-70
2024/01/04 00:08:27;;;;;;;4.27;1.07;;;;;;;11.82;57.75;95923.25;5067508;28;20210;-70
2024/01/04 00:10:53;;;;;;;2.40;1.00;;;;;;;11.84;57.77;95943.06;5078723;28;20891;-70
2024/01/04 00:13:18;;;;;;;2.90;0.77;;;;;;;11.92;57.40;95949.19;5079558;28;20420;-70
2024/01/04 00:15:44;;;;;;;2.73;0.70;;;;;;;11.94;57.55;95944.56;5071540;28;20280;-69
2024/01/04 00:18:09;;;;;;;3.40;0.70;;;;;;;11.97;57.23;95941.56;5071877;28;20297;-68
2024/01/04 00:20:35;;;;;;;3.53;1.20;;;;;;;11.91;57.21;95942.31;5078078;28;20652;-68
2024/01/04 00:23:00;;;;;;;2.30;1.33;;;;;;;11.82;57.61;95957.38;5078254;28;20659;-69
2024/01/04 00:25:26;;;;;;;3.23;0.90;;;;;;;11.86;57.70;95960.44;5075432;28;20618;-69
2024/01/04 00:27:51;;;;;;;2.00;0.80;;;;;;;11.76;57.85;95956.34;5078906;28;20554;-69
2024/01/04 00:30:17;;;;;;;7.07;0.90;;;;;;;11.81;58.32;95974.97;5086538;28;20250;-68
2024/01/04 00:32:43;;;;;;;4.77;0.93;;;;;;;11.90;58.12;95961.69;5060660;28;20185;-68
2024/01/04 00:35:08;;;;;;;3.37;0.97;;;;;;;11.64;58.45;95963.09;5051142;28;20186;-70
2024/01/04 00:37:34;;;;;;;3.20;1.20;;;;;;;11.61;58.80;95968.72;5083846;28;20194;-68
2024/01/04 00:39:59;;;;;;;2.80;1.07;;;;;;;11.74;58.90;95974.09;5078047;28;20214;-69
2024/01/04 00:42:25;;;;;;;3.37;1.10;;;;;;;11.83;58.30;95967.72;5081057;28;20265;-69
2024/01/04 00:44:50;;;;;;;3.40;1.00;;;;;;;11.85;58.50;95975.38;5075839;28;20185;-68
2024/01/04 00:47:16;;;;;;;4.20;1.20;;;;;;;11.75;58.72;95986.22;5077441;28;20251;-70
2024/01/04 00:49:41;;;;;;;2.03;0.90;;;;;;;11.64;58.95;95979.69;5071505;28;20206;-70
2024/01/04 00:52:07;;;;;;;3.63;1.47;;;;;;;11.69;58.89;95984.34;5077119;28;20210;-69
2024/01/04 00:54:32;;;;;;;6.70;1.20;;;;;;;11.59;59.30;95984.66;5073322;28;20591;-70
2024/01/04 00:56:58;;;;;;;2.13;1.07;;;;;;;11.71;59.55;95990.22;5077186;28;20188;-69
2024/01/04 00:59:23;;;;;;;2.73;0.90;;;;;;;11.65;58.93;95985.72;5051367;28;20218;-71
2024/01/04 01:01:49;;;;;;;2.60;1.30;;;;;;;11.72;59.39;95991.81;5070392;28;20269;-67
2024/01/04 01:04:14;;;;;;;3.83;1.10;;;;;;;11.61;59.99;95995.78;5086495;28;20564;-69
2024/01/04 01:06:40;;;;;;;4.03;0.90;;;;;;;11.60;60.17;96003.81;5070590;28;20575;-70
2024/01/04 01:09:05;;;;;;;4.73;1.43;;;;;;;11.58;60.31;96000.59;5071223;28;20278;-68
2024/01/04 01:11:30;;;;;;;2.50;1.00;;;;;;;11.57;60.31;95996.34;5081046;28;20192;-71
2024/01/04 01:13:56;;;;;;;2.37;0.90;;;;;;;11.62;60.05;96004.47;5078839;28;20272;-70
2024/01/04 01:16:21;;;;;;;5.90;1.00;;;;;;;11.64;60.29;95999.84;5065555;28;20214;-68
2024/01/04 01:18:47;;;;;;;3.80;1.10;;;;;;;11.52;60.85;96007.41;5078418;28;20281;-69
2024/01/04 01:21:12;;;;;;;2.53;0.80;;;;;;;11.58;60.69;96011.91;5080762;28;20577;-69
2024/01/04 01:23:38;;;;;;;2.63;1.13;;;;;;;11.49;60.54;96015.66;5066100;28;20187;-70
2024/01/04 01:26:03;;;;;;;2.50;0.80;;;;;;;11.56;60.47;96007.84;5063889;28;20217;-70
2024/01/04 01:28:29;;;;;;;3.97;1.07;;;;;;;11.49;60.76;96019.06;5073986;28;20300;-69
2024/01/04 01:30:54;;;;;;;3.40;0.87;;;;;;;11.59;60.47;96015.34;5071572;28;20182;-68
2024/01/04 01:33:20;;;;;;;3.17;0.70;;;;;;;11.66;60.31;96014.38;5078197;28;20455;-68
2024/01/04 01:35:45;;;;;;;7.30;1.00;;;;;;;11.63;60.51;96021.81;5074847;28;20188;-69
2024/01/04 01:38:11;;;;;;;3.80;0.73;;;;;;;11.56;60.33;96039.34;5078186;28;20757;-69
2024/01/04 01:40:36;;;;;;;2.50;0.90;;;;;;;11.57;60.03;96031.25;5076413;28;20214;-69
2024/01/04 01:43:02;;;;;;;1.37;0.70;;;;;;;11.50;60.42;96038.28;5080931;28;20318;-70
2024/01/04 01:45:27;;;;;;;4.07;0.80;;;;;;;11.33;60.65;96040.31;5065351;28;20190;-69
2024/01/04 01:47:54;;;;;;;3.93;0.90;;;;;;;11.37;60.98;96052.88;5067026;28;20190;-69
2024/01/04 01:50:20;;;;;;;4.47;0.90;;;;;;;11.19;61.49;96065.56;5078610;28;20196;-69
2024/01/04 01:52:47;;;;;;;2.17;0.80;;;;;;;11.21;61.64;96081.94;5073058;28;20427;-69
2024/01/04 01:55:14;;;;;;;3.00;0.90;;;;;;;11.27;61.40;96093.50;5053709;28;20474;-67
2024/01/04 01:57:39;;;;;;;2.90;1.20;;;;;;;11.25;61.79;96100.72;5064881;28;20434;-69
2024/01/04 02:00:06;;;;;;;3.80;1.03;;;;;;;11.20;61.71;96089.00;5063962;28;20495;-69
2024/01/04 02:02:33;;;;;;;2.10;0.80;;;;;;;11.15;61.38;96064.31;5049489;28;20812;-70
2024/01/04 02:05:00;;;;;;;1.53;0.63;;;;;;;11.04;61.56;96069.03;5079086;28;20573;-70
2024/01/04 02:07:25;;;;;;;1.90;0.70;;;;;;;11.16;61.32;96066.75;5041025;28;20423;-68
2024/01/04 02:09:51;;;;;;;3.23;0.70;;;;;;;11.20;61.25;96062.78;5073765;28;20440;-68
2024/01/04 02:12:16;;;;;;;1.87;0.60;;;;;;;11.04;60.42;96070.84;5059375;28;20189;-69
2024/01/04 02:14:43;;;;;;;1.30;0.60;;;;;;;10.95;60.53;96079.81;5036773;28;20269;-69
2024/01/04 02:17:09;;;;;;;0.93;0.50;;;;;;;11.07;60.19;96084.41;5026261;28;20850;-69
2024/01/04 02:19:34;;;;;;;1.00;0.67;;;;;;;11.09;59.55;96091.25;5040482;28;20463;-69
2024/01/04 02:22:00;;;;;;;1.17;0.50;;;;;;;10.93;59.77;96121.13;5074880;28;20193;-68
2024/01/04 02:24:25;;;;;;;1.13;0.53;;;;;;;11.02;59.92;96112.97;5083000;28;20186;-69
2024/01/04 02:26:52;;;;;;;1.17;0.47;;;;;;;10.93;59.68;96131.59;5063628;28;20183;-69
2024/01/04 02:29:17;;;;;;;1.83;0.80;;;;;;;10.94;60.38;96144.50;5072305;28;20237;-68
2024/01/04 02:31:44;;;;;;;1.30;0.53;;;;;;;11.02;60.19;96154.94;5074576;28;20456;-70
2024/01/04 02:34:09;;;;;;;2.30;0.50;;;;;;;10.86;59.89;96171.63;5072699;28;20189;-68
2024/01/04 02:36:34;;;;;;;2.93;0.50;;;;;;;10.80;59.76;96156.63;5072892;28;20519;-69
2024/01/04 02:39:00;;;;;;;0.90;0.50;;;;;;;10.82;60.55;96138.91;5068523;28;20300;-68
2024/01/04 02:41:25;;;;;;;1.53;0.60;;;;;;;10.53;60.91;96145.75;5074035;28;20883;-69
2024/01/04 02:43:51;;;;;;;0.90;0.50;;;;;;;10.62;61.07;96148.28;5077138;28;20542;-69
2024/01/04 02:46:16;;;;;;;1.00;0.57;;;;;;;10.73;60.90;96155.69;5081323;28;20278;-69
2024/01/04 02:48:42;;;;;;;1.43;0.50;;;;;;;10.77;60.71;96135.22;5073316;28;20207;-69
2024/01/04 02:51:08;;;;;;;0.90;0.50;;;;;;;10.58;61.15;96147.81;5075730;28;20178;-70
2024/01/04 02:53:33;;;;;;;1.00;0.70;;;;;;;10.51;61.18;96132.00;5078317;28;20211;-70
2024/01/04 02:55:58;;;;;;;1.10;0.50;;;;;;;10.55;61.45;96135.91;5078427;28;20305;-69
2024/01/04 02:58:25;;;;;;;1.00;0.50;;;;;;;10.49;61.08;96118.25;5074192;28;20198;-68
2024/01/04 03:00:51;;;;;;;1.87;0.50;;;;;;;10.41;61.26;96128.81;5081676;28;20293;-68
2024/01/04 03:03:16;;;;;;;1.40;0.70;;;;;;;10.48;60.96;96131.56;5084305;28;20511;-69
2024/01/04 03:05:42;;;;;;;0.90;0.50;;;;;;;10.47;61.24;96133.34;5079846;28;20227;-70
2024/01/04 03:08:07;;;;;;;2.13;0.60;;;;;;;10.40;61.19;96137.66;5071487;28;20213;-68
2024/01/04 03:10:33;;;;;;;1.90;0.50;;;;;;;10.55;61.55;96143.75;5074545;28;20892;-68
2024/01/04 03:12:58;;;;;;;1.20;0.60;;;;;;;10.34;61.30;96140.94;5080009;28;20185;-69
2024/01/04 03:15:24;;;;;;;0.90;0.50;;;;;;;10.32;61.00;96137.72;5066738;28;20190;-68
2024/01/04 03:17:49;;;;;;;0.80;0.50;;;;;;;10.29;61.25;96144.94;5058446;28;20284;-68
2024/01/04 03:20:15;;;;;;;0.80;0.50;;;;;;;10.23;61.25;96145.63;5071012;28;20705;-68
2024/01/04 03:22:40;;;;;;;1.00;0.50;;;;;;;10.43;61.30;96150.41;5084473;28;20285;-70
2024/01/04 03:25:09;;;;;;;0.70;0.40;;;;;;;10.30;61.62;96148.34;5073809;28;20314;-69
2024/01/04 03:27:35;;;;;;;4.70;0.60;;;;;;;10.27;61.87;96141.69;5055976;28;20186;-68
2024/01/04 03:30:00;;;;;;;1.37;0.60;;;;;;;10.35;61.55;96147.81;5084027;28;20909;-69
2024/01/04 03:32:25;;;;;;;1.23;0.50;;;;;;;10.34;61.63;96147.03;5069143;28;20319;-69
2024/01/04 03:34:51;;;;;;;1.83;0.63;;;;;;;10.29;61.46;96139.69;5077951;28;20213;-69
2024/01/04 03:37:16;;;;;;;3.23;0.60;;;;;;;10.36;61.57;96150.28;5077992;28;20297;-69
2024/01/04 03:39:42;;;;;;;2.40;0.50;;;;;;;10.59;61.39;96147.63;5084917;28;20674;-70
2024/01/04 03:42:07;;;;;;;1.40;0.50;;;;;;;10.50;61.61;96143.47;5077597;28;20242;-70
2024/01/04 03:44:33;;;;;;;1.90;0.60;;;;;;;10.40;62.14;96142.91;5084706;28;20556;-68
2024/01/04 03:46:58;;;;;;;1.30;0.60;;;;;;;10.44;62.14;96152.06;5066272;28;20199;-71
2024/01/04 03:49:24;;;;;;;2.73;0.67;;;;;;;10.41;62.29;96144.53;5075299;28;20221;-69
2024/01/04 03:51:50;;;;;;;1.57;0.60;;;;;;;10.52;62.12;96148.56;5078868;28;20273;-69
2024/01/04 03:54:15;;;;;;;0.90;0.50;;;;;;;10.58;61.94;96148.66;5072768;28;20187;-69
2024/01/04 03:56:40;;;;;;;1.47;0.60;;;;;;;10.58;62.30;96151.28;5074834;28;20528;-70
2024/01/04 03:59:06;;;;;;;1.00;0.50;;;;;;;10.57;62.54;96161.91;5076961;28;20287;-69
2024/01/04 04:01:31;;;;;;;2.77;0.57;;;;;;;10.70;62.52;96156.06;5072863;28;20270;-68
2024/01/04 04:03:57;;;;;;;3.07;0.80;;;;;;;10.81;62.22;96163.50;5086139;28;20193;-68
2024/01/04 04:06:22;;;;;;;2.57;0.90;;;;;;;10.83;62.21;96165.94;5070425;28;20270;-68
2024/01/04 04:08:48;;;;;;;1.30;0.70;;;;;;;10.66;62.27;96163.47;5065681;28;20210;-69
2024/01/04 04:11:19;;;;;;;2.67;0.70;;;;;;;10.57;63.06;96167.97;5061201;28;20183;-69
2024/01/04 04:13:45;;;;;;;5.80;0.80;;;;;;;10.42;63.47;96180.22;5067772;28;20220;-70
2024/01/04 04:16:10;;;;;;;5.90;0.80;;;;;;;10.75;62.89;96172.91;5072386;28;20526;-69
2024/01/04 04:18:35;;;;;;;4.03;0.70;;;;;;;10.73;62.67;96182.72;5047724;28;20297;-70
2024/01/04 04:21:01;;;;;;;2.43;0.70;;;;;;;10.68;62.83;96171.16;5055298;28;20259;-69
2024/01/04 04:23:27;;;;;;;8.43;1.00;;;;;;;10.64;63.26;96185.59;5068899;28;20670;-68
2024/01/04 04:25:53;;;;;;;4.57;1.00;;;;;;;10.52;63.57;96188.66;5048586;28;20196;-68
2024/01/04 04:28:18;;;;;;;2.60;0.80;;;;;;;10.44;63.37;96194.75;5044369;28;20453;-70
2024/01/04 04:30:44;;;;;;;3.40;0.80;;;;;;;10.66;63.03;96196.72;5073547;28;20201;-69
2024/01/04 04:33:09;;;;;;;3.87;0.87;;;;;;;10.44;63.34;96204.44;5074009;28;20290;-68
2024/01/04 04:35:35;;;;;;;4.50;1.00;;;;;;;10.68;63.16;96184.25;5059137;28;20241;-69
2024/01/04 04:38:00;;;;;;;3.27;1.10;;;;;;;10.81;62.74;96189.72;5038735;28;20277;-70
2024/01/04 04:40:26;;;;;;;9.70;1.20;;;;;;;10.85;62.60;96196.19;5063853;28;20279;-70
2024/01/04 04:42:51;;;;;;;7.17;1.20;;;;;;;10.89;62.93;96196.69;5065076;28;20206;-70
2024/01/04 04:45:16;;;;;;;2.83;0.80;;;;;;;10.91;62.71;96198.13;5061607;28;20197;-70
2024/01/04 04:47:42;;;;;;;2.80;0.87;;;;;;;11.06;62.25;96192.88;5063732;28;20202;-68
2024/01/04 04:50:08;;;;;;;1.67;0.83;;;;;;;11.00;62.27;96195.41;5034838;28;20301;-69
2024/01/04 04:52:33;;;;;;;2.53;0.70;;;;;;;10.98;62.31;96200.00;5069400;28;20190;-71
2024/01/04 04:55:00;;;;;;;2.27;0.77;;;;;;;10.98;62.46;96200.84;5068896;28;20191;-68
2024/01/04 04:57:25;;;;;;;6.53;1.00;;;;;;;11.04;62.41;96213.22;5045949;28;20317;-71
2024/01/04 04:59:50;;;;;;;2.57;0.90;;;;;;;11.04;62.59;96210.59;5057111;28;21058;-69
2024/01/04 05:02:16;;;;;;;2.10;0.70;;;;;;;10.93;62.72;96210.25;5076425;28;20197;-67
2024/01/04 05:04:43;;;;;;;2.30;0.80;;;;;;;10.96;62.77;96225.63;5066818;28;20210;-69
2024/01/04 05:07:09;;;;;;;1.00;0.63;;;;;;;11.04;62.82;96233.41;5069572;28;20197;-68
2024/01/04 05:09:34;;;;;;;0.93;0.60;;;;;;;10.96;63.04;96239.53;5071095;28;20444;-69
2024/01/04 05:11:59;;;;;;;2.33;0.70;;;;;;;10.76;62.95;96247.06;5060261;28;20220;-69
2024/01/04 05:14:25;;;;;;;3.80;0.90;;;;;;;10.83;63.23;96247.19;5067631;28;20210;-68
2024/01/04 05:16:50;;;;;;;1.93;0.97;;;;;;;10.84;62.78;96249.63;5048560;28;20272;-69
2024/01/04 05:19:16;;;;;;;3.93;0.80;;;;;;;10.75;63.22;96243.66;5063981;28;20289;-69
2024/01/04 05:21:41;;;;;;;2.10;0.97;;;;;;;10.81;62.70;96242.13;5061486;28;20175;-71
2024/01/04 05:24:07;;;;;;;2.60;1.00;;;;;;;10.93;62.63;96252.19;5069484;28;20213;-70
2024/01/04 05:26:32;;;;;;;2.40;0.63;;;;;;;10.70;62.37;96255.66;5062261;28;20618;-68
2024/01/04 05:28:58;;;;;;;2.10;0.80;;;;;;;10.78;61.81;96258.19;5060066;28;20205;-68
2024/01/04 05:31:25;;;;;;;2.33;0.87;;;;;;;10.94;61.65;96259.06;5072497;28;20169;-70
2024/01/04 05:33:50;;;;;;;1.00;0.57;;;;;;;10.90;61.14;96267.28;5066449;28;20323;-68
2024/01/04 05:36:15;;;;;;;4.03;0.93;;;;;;;10.96;60.86;96275.44;5075009;28;20508;-68
2024/01/04 05:38:41;;;;;;;2.20;0.77;;;;;;;11.09;60.66;96265.13;5076092;28;20230;-69
2024/01/04 05:41:06;;;;;;;1.67;0.80;;;;;;;11.06;60.54;96276.78;5074464;28;20206;-69
2024/01/04 05:43:33;;;;;;;1.17;0.60;;;;;;;11.00;60.67;96280.13;5063699;28;20224;-69
2024/01/04 05:46:01;;;;;;;1.33;0.70;;;;;;;11.08;60.52;96263.53;5061564;28;20206;-68
2024/01/04 05:48:27;;;;;;;1.17;0.70;;;;;;;10.91;60.50;96282.00;5071481;28;20496;-70
2024/01/04 05:50:53;;;;;;;2.17;0.90;;;;;;;11.05;60.67;96277.78;5067128;28;20437;-70
2024/01/04 05:53:18;;;;;;;3.90;0.80;;;;;;;10.94;60.85;96295.75;5057232;28;20711;-68
2024/01/04 05:55:44;;;;;;;4.93;1.03;;;;;;;10.88;60.63;96295.47;5062187;28;20179;-68
2024/01/04 05:58:09;;;;;;;2.10;0.90;;;;;;;11.00;60.73;96301.09;5067410;28;20293;-70
2024/01/04 06:00:34;;;;;;;1.63;0.70;;;;;;;10.77;60.58;96301.13;5075152;28;20296;-69
2024/01/04 06:03:00;;;;;;;4.20;0.80;;;;;;;10.83;60.89;96313.53;5060703;28;20337;-69
2024/01/04 06:05:26;;;;;;;2.57;0.83;;;;;;;10.97;60.57;96319.81;5055142;28;20270;-69
2024/01/04 06:07:52;;;;;;;2.70;1.00;;;;;;;11.13;60.36;96318.03;5069922;28;20243;-67
2024/01/04 06:10:17;;;;;;;3.50;0.87;;;;;;;11.12;60.42;96317.22;5069969;28;20421;-69
2024/01/04 06:12:43;;;;;;;2.83;0.77;;;;;;;11.20;60.04;96317.16;5072010;28;20215;-69
2024/01/04 06:15:09;;;;;;;2.70;1.00;;;;;;;11.09;60.13;96325.44;5050120;28;20264;-70
2024/01/04 06:17:35;;;;;;;2.90;1.10;;;;;;;11.23;59.90;96329.09;5077953;28;20655;-68
2024/01/04 06:20:00;;;;;;;3.03;1.00;;;;;;;11.23;59.94;96323.84;5075963;28;20470;-69
2024/01/04 06:22:26;;;;;;;3.30;0.90;;;;;;;11.11;59.34;96331.31;5083034;28;20178;-68
2024/01/04 06:24:51;;;;;;;3.30;0.97;;;;;;;10.99;59.96;96327.47;5054173;28;20259;-69
2024/01/04 06:27:16;;;;;;;3.00;0.93;;;;;;;11.19;59.55;96339.13;5077784;28;20183;-69
2024/01/04 06:29:44;;;;;;;3.20;0.90;;;;;;;11.13;59.48;96347.69;5080900;28;20276;-68
2024/01/04 06:32:10;;;;;;;5.30;1.20;;;;;;;11.13;59.47;96352.94;5081144;28;20189;-68
2024/01/04 06:34:35;;;;;;;1.97;1.00;;;;;;;11.18;59.56;96357.66;5082643;28;20489;-69
2024/01/04 06:37:00;;;;;;;5.03;1.50;;;;;;;10.90;60.16;96350.31;5084980;28;20601;-67
2024/01/04 06:39:28;;;;;;;4.40;1.20;;;;;;;10.99;60.04;96351.06;5083963;28;20236;-68
2024/01/04 06:41:54;;;;;;;2.13;0.90;;;;;;;11.05;60.10;96350.38;5075195;28;20182;-68
2024/01/04 06:44:19;;;;;;;3.87;1.40;;;;;;;11.06;59.59;96363.31;5090429;28;20416;-69
2024/01/04 06:46:44;;;;;;;3.10;1.10;;;;;;;11.04;60.02;96357.44;5073671;28;20941;-68
2024/01/04 06:49:10;;;;;;;4.17;1.60;;;;;;;11.13;59.68;96365.25;5089841;28;20205;-67
2024/01/04 06:51:35;;;;;;;1.87;1.10;;;;;;;11.13;59.57;96375.75;5085486;28;20186;-70
2024/01/04 06:54:01;;;;;;;3.50;1.03;;;;;;;11.04;60.09;96375.78;5079557;28;20194;-69
2024/01/04 06:56:27;;;;;;;4.83;0.93;;;;;;;11.12;59.78;96388.00;5083455;28;20193;-69
2024/01/04 06:58:52;;;;;;;4.60;0.90;;;;;;;11.02;59.45;96390.06;5078104;28;20198;-67
2024/01/04 07:01:20;;;;;;;3.53;1.27;;;;;;;11.11;59.45;96389.00;5079813;28;20232;-69
2024/01/04 07:03:46;;;;;;;2.73;1.00;;;;;;;10.99;59.67;96393.03;5083894;28;20182;-68
2024/01/04 07:06:13;;;;;;;3.37;0.93;;;;;;;11.06;59.56;96401.84;5097101;28;20450;-70
2024/01/04 07:08:38;;;;;;;3.83;1.30;;;;;;;10.93;59.44;96412.91;5081322;28;20209;-70
2024/01/04 07:11:05;;;;;;;3.40;1.00;;;;;;;10.98;59.81;96425.47;5081393;28;20424;-69
2024/01/04 07:13:32;;;;;;;4.23;1.27;;;;;;;11.06;59.71;96420.19;5058657;28;20191;-68
2024/01/04 07:15:58;;;;;;;3.13;1.17;;;;;;;11.05;60.14;96432.47;5079559;28;20447;-68
2024/01/04 07:18:23;;;;;;;5.10;1.17;;;;;;;10.95;59.98;96436.34;5079856;28;20448;-69
2024/01/04 07:20:49;;;;;;;8.97;1.13;;;;;;;11.05;59.93;96437.72;5084416;28;20229;-69
2024/01/04 07:23:14;;;;;;;3.30;1.30;;;;;;;11.03;60.01;96436.28;5071954;28;20197;-69
2024/01/04 07:25:40;;;;;;;5.03;1.73;;;;;;;10.87;60.38;96451.09;5060060;28;20218;-69
2024/01/04 07:28:11;;;;;;;4.50;1.20;;;;;;;10.91;60.39;96452.41;5056188;28;20182;-69
2024/01/04 07:30:37;;;;;;;4.57;1.23;;;;;;;10.87;60.66;96451.09;5085040;28;20420;-68
2024/01/04 07:33:03;;;;;;;4.23;1.47;;;;;;;10.57;61.09;96466.66;5084492;28;20276;-69
2024/01/04 07:35:29;;;;;;;4.27;1.00;;;;;;;10.67;60.93;96471.66;5060635;28;20209;-70
2024/01/04 07:37:54;;;;;;;5.27;1.00;;;;;;;10.77;60.85;96479.34;5084659;28;20452;-69
2024/01/04 07:40:20;;;;;;;2.47;1.00;;;;;;;10.56;61.23;96479.91;5078989;28;20710;-69
2024/01/04 07:42:45;;;;;;;2.40;0.93;;;;;;;10.72;61.25;96482.47;5063995;28;20194;-70
2024/01/04 07:45:11;;;;;;;4.00;1.03;;;;;;;10.77;61.29;96481.97;5070351;28;20260;-69
2024/01/04 07:47:36;;;;;;;4.67;0.93;;;;;;;10.58;61.57;96478.78;5078784;28;20215;-69
2024/01/04 07:50:04;;;;;;;7.13;0.90;;;;;;;10.63;61.34;96474.81;5088419;28;20769;-70
2024/01/04 07:52:29;;;;;;;3.10;0.97;;;;;;;10.72;61.03;96473.78;5072106;28;20192;-68
2024/01/04 07:54:55;;;;;;;1.00;0.70;;;;;;;10.70;60.93;96471.34;5075518;28;20425;-68
2024/01/04 07:57:20;;;;;;;2.90;0.80;;;;;;;10.70;60.89;96471.34;5078181;28;20277;-70
2024/01/04 07:59:45;;;;;;;4.20;0.90;;;;;;;10.67;60.57;96481.34;5073058;28;20206;-69
2024/01/04 08:02:11;;;;;;;2.83;0.90;;;;;;;10.71;60.10;96472.16;5077219;28;20259;-68
2024/01/04 08:04:36;;;;;;;3.03;1.00;;;;;;;10.78;60.12;96475.72;5073314;28;20190;-70
2024/01/04 08:07:02;;;;;;;2.23;0.87;;;;;;;11.12;60.30;96469.31;5080078;28;20683;-69
2024/01/04 08:09:27;;;;;;;5.23;1.10;;;;;;;11.65;58.82;96466.81;5079380;28;20213;-68
2024/01/04 08:11:53;;;;;;;4.03;1.17;;;;;;;12.09;57.13;96462.66;5081038;28;20266;-69
2024/01/04 08:14:18;;;;;;;3.47;1.07;;;;;;;12.76;56.35;96460.09;5077567;28;20186;-68
2024/01/04 08:16:44;;;;;;;1.77;1.30;;;;;;;13.35;54.38;96461.72;5066953;28;20558;-68
2024/01/04 08:19:09;;;;;;;4.60;2.03;;;;;;;13.81;52.64;96457.88;5082881;28;20311;-68
2024/01/04 08:21:35;;;;;;;7.83;1.70;;;;;;;14.02;51.03;96468.56;5073005;28;20197;-68
2024/01/04 08:24:00;;;;;;;6.60;0.90;;;;;;;14.35;49.79;96462.69;5068737;28;20280;-68
2024/01/04 08:26:27;;;;;;;4.90;1.90;;;;;;;14.65;48.20;96465.06;5065270;28;21861;-69
2024/01/04 08:28:52;;;;;;;6.63;1.77;;;;;;;15.06;48.04;96464.22;5073908;28;20229;-69
2024/01/04 08:31:18;;;;;;;4.10;1.60;;;;;;;15.24;46.73;96460.22;5075197;28;20490;-68
2024/01/04 08:33:43;;;;;;;4.87;1.33;;;;;;;15.56;46.17;96466.56;5061010;28;20218;-69
2024/01/04 08:36:08;;;;;;;1.40;1.00;;;;;;;15.80;45.20;96474.91;5050948;28;20189;-69
2024/01/04 08:38:34;;;;;;;5.20;1.40;;;;;;;16.02;44.53;96475.50;5059110;28;20340;-69
2024/01/04 08:40:59;;;;;;;4.37;1.10;;;;;;;16.19;43.79;96483.03;5067864;28;20206;-68
2024/01/04 08:43:25;;;;;;;10.70;1.47;;;;;;;16.63;43.73;96484.16;5062933;28;20660;-71
2024/01/04 08:45:50;;;;;;;2.50;1.10;;;;;;;16.74;42.76;96485.34;5070229;28;20207;-70
2024/01/04 08:48:16;;;;;;;3.40;1.00;;;;;;;16.86;42.57;96490.78;5054179;28;20266;-70
2024/01/04 08:50:41;;;;;;;1.63;0.77;;;;;;;17.28;41.44;96496.50;5069600;28;20245;-70
2024/01/04 08:53:07;;;;;;;2.90;1.10;;;;;;;17.22;41.75;96501.84;5068498;28;20734;-71
2024/01/04 08:55:32;;;;;;;3.13;1.13;;;;;;;17.06;41.91;96498.69;5066983;28;20244;-71
2024/01/04 08:57:58;;;;;;;3.97;1.20;;;;;;;16.91;42.29;96509.47;5065226;28;20192;-70
2024/01/04 09:00:24;;;;;;;2.17;0.97;;;;;;;16.08;42.88;96521.44;5070507;28;20285;-71
2024/01/04 09:02:49;;;;;;;5.10;1.57;;;;;;;16.02;42.94;96535.50;5060486;28;20901;-71
2024/01/04 09:05:15;;;;;;;4.70;1.20;;;;;;;15.51;44.75;96525.25;5066950;28;20219;-71
2024/01/04 09:07:40;;;;;;;3.43;1.00;;;;;;;14.98;44.96;96523.25;5065665;28;20188;-71
2024/01/04 09:10:06;;;;;;;3.10;1.07;;;;;;;14.83;45.58;96543.69;5073564;28;20309;-71
2024/01/04 09:12:32;;;;;;;3.30;1.20;;;;;;;14.93;45.62;96533.59;5041562;28;20195;-69
2024/01/04 09:14:58;;;;;;;3.50;1.10;;;;;;;14.88;45.41;96542.09;5062293;28;20433;-70
2024/01/04 09:17:25;;;;;;;3.10;0.90;;;;;;;14.85;45.91;96547.78;5066184;28;20565;-70
2024/01/04 09:19:50;;;;;;;6.03;1.07;;;;;;;14.80;45.60;96544.91;5061088;28;20582;-70
2024/01/04 09:22:17;;;;;;;3.00;2.07;;;;;;;15.23;45.22;96541.22;5059053;28;21030;-71
2024/01/04 09:24:42;;;;;;;2.90;1.37;;;;;;;15.34;43.92;96542.47;5070638;28;20436;-72
2024/01/04 09:27:08;;;;;;;2.03;1.10;;;;;;;15.47;44.70;96547.78;5063682;28;20224;-72
2024/01/04 09:29:34;;;;;;;4.57;1.63;;;;;;;15.88;45.39;96540.78;5049247;28;20209;-70
2024/01/04 09:32:01;;;;;;;3.67;2.07;;;;;;;16.38;45.43;96539.53;5039624;28;20293;-71
2024/01/04 09:34:27;;;;;;;5.57;1.70;;;;;;;16.62;43.33;96535.44;5073096;28;20219;-70
2024/01/04 09:36:54;;;;;;;6.60;1.50;;;;;;;16.63;43.38;96546.81;5072488;28;20429;-73
2024/01/04 09:39:19;;;;;;;3.00;1.07;;;;;;;16.81;41.47;96548.81;5050883;28;20302;-72
2024/01/04 09:41:47;;;;;;;6.00;1.20;;;;;;;16.99;40.85;96562.22;5069224;28;20995;-73
2024/01/04 09:44:13;;;;;;;2.50;1.00;;;;;;;17.31;40.80;96564.16;5070630;28;20201;-73
2024/01/04 09:46:40;;;;;;;3.50;1.10;;;;;;;17.69;39.74;96570.47;5073081;28;20894;-72
2024/01/04 09:49:09;;;;;;;3.83;1.50;;;;;;;18.07;38.91;96556.38;5072671;28;20976;-72
2024/01/04 09:51:39;;;;;;;5.10;0.87;;;;;;;18.23;38.56;96570.91;5056522;28;20799;-72
2024/01/04 09:54:11;;;;;;;4.23;1.10;;;;;;;18.46;37.58;96575.63;5076594;28;20445;-72
2024/01/04 09:56:39;;;;;;;4.97;0.90;;;;;;;18.40;37.68;96582.63;5053978;28;20762;-71
2024/01/04 09:59:04;;;;;;;2.40;1.00;;;;;;;18.19;37.10;96583.81;5069861;28;20455;-72
2024/01/04 10:01:33;;;;;;;3.23;1.07;;;;;;;17.83;37.71;96593.19;5081216;28;20528;-72
2024/01/04 10:04:00;;;;;;;2.90;1.07;;;;;;;18.00;38.13;96592.72;5086992;28;20202;-73
2024/01/04 10:06:32;;;;;;;1.80;0.90;;;;;;;18.38;37.73;96595.28;5065368;28;20982;-74
2024/01/04 10:09:23;;;;;;;4.53;0.93;;;;;;;17.62;37.68;96597.81;5074828;28;20451;-72
2024/01/04 10:11:57;;;;;;;2.90;1.10;;;;;;;16.82;39.26;96609.44;5070925;28;20423;-71
2024/01/04 10:14:27;;;;;;;3.27;0.90;;;;;;;16.25;40.23;96603.81;5071062;28;20417;-73
2024/01/04 10:16:53;;;;;;;4.57;1.67;;;;;;;15.79;41.53;96616.72;5075857;28;20582;-71
2024/01/04 10:19:19;;;;;;;3.40;1.23;;;;;;;15.71;42.14;96608.16;5079660;28;20593;-71
2024/01/04 10:21:45;;;;;;;2.93;1.10;;;;;;;15.47;42.53;96615.63;5078887;28;20919;-73
2024/01/04 10:24:15;;;;;;;5.67;1.90;;;;;;;15.50;43.10;96623.16;5071301;28;20190;-71
2024/01/04 10:26:41;;;;;;;4.00;1.43;;;;;;;15.26;44.57;96640.31;5089286;28;20194;-71
2024/01/04 10:29:06;;;;;;;4.47;1.37;;;;;;;14.76;45.91;96635.97;5079034;28;20458;-72
2024/01/04 10:31:32;;;;;;;4.40;1.30;;;;;;;14.63;46.31;96641.09;5076291;28;20523;-71
2024/01/04 10:33:58;;;;;;;4.33;1.80;;;;;;;14.43;46.73;96641.78;5083540;28;20194;-72
2024/01/04 10:36:28;;;;;;;3.37;1.40;;;;;;;14.29;47.34;96644.31;5053169;28;20200;-71
2024/01/04 10:38:58;;;;;;;1.90;1.00;;;;;;;14.05;47.85;96650.75;5080742;28;20535;-70
2024/01/04 10:41:28;;;;;;;3.90;2.47;;;;;;;14.14;48.86;96662.00;5079422;28;20555;-71
2024/01/04 10:44:06;;;;;;;3.83;1.93;;;;;;;14.06;49.05;96655.03;5086779;28;20432;-72
2024/01/04 10:46:36;;;;;;;5.17;2.00;;;;;;;14.01;49.87;96661.88;5069093;28;20937;-71
2024/01/04 10:49:02;;;;;;;5.50;1.40;;;;;;;13.94;50.00;96654.72;5063197;28;20463;-71
2024/01/04 10:51:32;;;;;;;6.80;3.73;;;;;;;13.92;50.71;96659.34;5082815;28;20424;-71
2024/01/04 10:53:58;;;;;;;3.77;2.03;;;;;;;13.90;51.22;96653.47;5066652;28;20494;-71
2024/01/04 10:56:24;;;;;;;2.20;1.00;;;;;;;13.83;51.59;96665.75;5081747;28;20773;-72
2024/01/04 10:58:50;;;;;;;3.00;1.50;;;;;;;13.88;50.67;96658.09;5061176;28;20522;-72
2024/01/04 11:01:16;;;;;;;4.40;1.23;;;;;;;13.83;50.84;96655.22;5061815;28;20543;-73
2024/01/04 11:03:42;;;;;;;3.37;0.90;;;;;;;13.99;50.37;96651.53;5066083;28;20503;-72
2024/01/04 11:06:08;;;;;;;2.73;0.90;;;;;;;14.01;49.70;96651.31;5060170;28;20186;-71
2024/01/04 11:08:35;;;;;;;2.03;0.70;;;;;;;13.74;49.94;96646.63;5075750;28;20448;-72
2024/01/04 11:11:02;;;;;;;1.67;0.70;;;;;;;13.72;50.51;96658.34;5079746;28;20186;-71
2024/01/04 11:13:28;;;;;;;2.90;0.97;;;;;;;13.70;50.57;96645.34;5040605;28;20447;-73
2024/01/04 11:15:56;;;;;;;3.20;1.17;;;;;;;13.77;50.75;96658.59;5032943;28;20859;-72
2024/01/04 11:18:33;;;;;;;3.30;1.20;;;;;;;13.79;51.25;96648.69;5066449;28;20478;-71
2024/01/04 11:21:30;;;;;;;4.13;1.33;;;;;;;13.96;51.40;96649.25;5062295;28;20466;-73
2024/01/04 11:24:02;;;;;;;1.90;1.13;;;;;;;14.11;51.07;96638.69;5057273;28;20535;-70
2024/01/04 11:26:37;;;;;;;2.80;1.03;;;;;;;14.17;50.65;96639.75;5083884;28;20427;-75
2024/01/04 11:29:08;;;;;;;5.40;0.90;;;;;;;14.13;50.34;96632.22;5045321;28;20459;-71